sensor_id;sensor_type;location;lat;lon;timestamp;temperature;humidity
10572;DHT22;5334;48.928;12.704;2023-03-16T00:01:15;0.90;99.90
10572;DHT22;5334;48.928;12.704;2023-03-16T00:03:40;0.80;99.90
10572;DHT22;5334;48.928;12.704;2023-03-16T00:06:06;0.70;99.90
10572;DHT22;5334;48.928;12.704;2023-03-16T00:08:32;0.70;99.90
10572;DHT22;5334;48.928;12.704;2023-03-16T00:10:59;0.60;99.90
10572;DHT22;5334;48.928;12.704;2023-03-16T00:13:24;0.70;99.90
10572;DHT22;5334;48.928;12.704;2023-03-16T00:15:52;0.60;99.90
10572;DHT22;5334;48.928;12.704;2023-03-16T00:18:19;0.70;99.90
10572;DHT22;5334;48.928;12.704;2023-03-16T00:20:48;0.60;99.90
10572;DHT22;5334;48.928;12.704;2023-03-16T00:23:14;0.60;99.90
10572;DHT22;5334;48.928;12.704;2023-03-16T00:25:39;0.50;99.90
10572;DHT22;5334;48.928;12.704;2023-03-16T00:28:06;0.40;99.90
10572;DHT22;5334;48.928;12.704;2023-03-16T00:30:32;0.40;99.90
10572;DHT22;5334;48.928;12.704;2023-03-16T00:32:57;0.40;99.90
10572;DHT22;5334;48.928;12.704;2023-03-16T00:35:24;0.30;99.90
10572;DHT22;5334;48.928;12.704;2023-03-16T00:37:49;0.40;99.90
10572;DHT22;5334;48.928;12.704;2023-03-16T00:40:15;0.30;99.90
10572;DHT22;5334;48.928;12.704;2023-03-16T00:42:41;0.30;99.90
10572;DHT22;5334;48.928;12.704;2023-03-16T00:45:08;0.30;99.90
10572;DHT22;5334;48.928;12.704;2023-03-16T00:47:34;0.10;99.90
10572;DHT22;5334;48.928;12.704;2023-03-16T00:50:00;-0.10;99.90
10572;DHT22;5334;48.928;12.704;2023-03-16T00:52:26;-0.10;99.90
10572;DHT22;5334;48.928;12.704;2023-03-16T00:54:54;-0.10;99.90
10572;DHT22;5334;48.928;12.704;2023-03-16T00:57:22;-0.10;99.90
10572;DHT22;5334;48.928;12.704;2023-03-16T00:59:49;0.00;99.90
10572;DHT22;5334;48.928;12.704;2023-03-16T01:02:16;0.00;99.90
10572;DHT22;5334;48.928;12.704;2023-03-16T01:04:43;0.00;99.90
10572;DHT22;5334;48.928;12.704;2023-03-16T01:07:12;0.00;99.90
10572;DHT22;5334;48.928;12.704;2023-03-16T01:09:38;0.00;99.90
10572;DHT22;5334;48.928;12.704;2023-03-16T01:12:13;0.00;99.90
10572;DHT22;5334;48.928;12.704;2023-03-16T01:14:39;0.00;99.90
10572;DHT22;5334;48.928;12.704;2023-03-16T01:17:06;0.00;99.90
10572;DHT22;5334;48.928;12.704;2023-03-16T01:19:33;-0.10;99.90
10572;DHT22;5334;48.928;12.704;2023-03-16T01:22:04;-0.10;99.90
10572;DHT22;5334;48.928;12.704;2023-03-16T01:24:30;0.00;99.90
10572;DHT22;5334;48.928;12.704;2023-03-16T01:26:56;0.00;99.90
10572;DHT22;5334;48.928;12.704;2023-03-16T01:29:22;0.00;99.90
10572;DHT22;5334;48.928;12.704;2023-03-16T01:31:47;-0.10;99.90
10572;DHT22;5334;48.928;12.704;2023-03-16T01:34:16;-0.10;99.90
10572;DHT22;5334;48.928;12.704;2023-03-16T01:36:45;-0.20;99.90
10572;DHT22;5334;48.928;12.704;2023-03-16T01:39:11;-0.20;99.90
10572;DHT22;5334;48.928;12.704;2023-03-16T01:41:39;-0.20;99.90
10572;DHT22;5334;48.928;12.704;2023-03-16T01:44:06;-0.20;99.90
10572;DHT22;5334;48.928;12.704;2023-03-16T01:46:32;-0.30;99.90
10572;DHT22;5334;48.928;12.704;2023-03-16T01:49:11;-0.30;99.90
10572;DHT22;5334;48.928;12.704;2023-03-16T01:52:25;-0.30;99.90
10572;DHT22;5334;48.928;12.704;2023-03-16T01:54:38;-0.30;99.90
10572;DHT22;5334;48.928;12.704;2023-03-16T01:57:13;-0.30;99.90
10572;DHT22;5334;48.928;12.704;2023-03-16T01:59:47;-0.30;99.90
10572;DHT22;5334;48.928;12.704;2023-03-16T02:02:18;-0.40;99.90
10572;DHT22;5334;48.928;12.704;2023-03-16T02:05:05;-0.40;99.90
10572;DHT22;5334;48.928;12.704;2023-03-16T02:07:39;-0.40;99.90
10572;DHT22;5334;48.928;12.704;2023-03-16T02:10:08;-0.50;99.90
10572;DHT22;5334;48.928;12.704;2023-03-16T02:12:33;-0.50;99.90
10572;DHT22;5334;48.928;12.704;2023-03-16T02:15:00;-0.50;99.90
10572;DHT22;5334;48.928;12.704;2023-03-16T02:17:28;-0.40;99.90
10572;DHT22;5334;48.928;12.704;2023-03-16T02:20:11;-0.40;99.90
10572;DHT22;5334;48.928;12.704;2023-03-16T02:22:43;-0.50;99.90
10572;DHT22;5334;48.928;12.704;2023-03-16T02:25:11;-0.50;99.90
10572;DHT22;5334;48.928;12.704;2023-03-16T02:30:14;-0.60;99.90
10572;DHT22;5334;48.928;12.704;2023-03-16T02:32:41;-0.50;99.90
10572;DHT22;5334;48.928;12.704;2023-03-16T02:35:08;-0.60;99.90
10572;DHT22;5334;48.928;12.704;2023-03-16T02:37:34;-0.70;99.90
10572;DHT22;5334;48.928;12.704;2023-03-16T02:40:01;-0.70;99.90
10572;DHT22;5334;48.928;12.704;2023-03-16T02:42:30;-0.70;99.90
10572;DHT22;5334;48.928;12.704;2023-03-16T02:44:59;-0.80;99.90
10572;DHT22;5334;48.928;12.704;2023-03-16T02:47:42;-0.80;99.90
10572;DHT22;5334;48.928;12.704;2023-03-16T02:50:11;-0.80;99.90
10572;DHT22;5334;48.928;12.704;2023-03-16T02:52:37;-0.80;99.90
10572;DHT22;5334;48.928;12.704;2023-03-16T02:55:05;-0.80;99.90
10572;DHT22;5334;48.928;12.704;2023-03-16T02:57:31;-0.80;99.90
10572;DHT22;5334;48.928;12.704;2023-03-16T02:59:57;-0.80;99.90
10572;DHT22;5334;48.928;12.704;2023-03-16T03:02:22;-0.80;99.90
10572;DHT22;5334;48.928;12.704;2023-03-16T03:04:48;-0.80;99.90
10572;DHT22;5334;48.928;12.704;2023-03-16T03:07:15;-0.80;99.90
10572;DHT22;5334;48.928;12.704;2023-03-16T03:09:41;-0.80;99.90
10572;DHT22;5334;48.928;12.704;2023-03-16T03:12:08;-0.80;99.90
10572;DHT22;5334;48.928;12.704;2023-03-16T03:14:34;-0.70;99.90
10572;DHT22;5334;48.928;12.704;2023-03-16T03:17:06;-0.70;99.90
10572;DHT22;5334;48.928;12.704;2023-03-16T03:19:33;-0.80;99.90
10572;DHT22;5334;48.928;12.704;2023-03-16T03:22:00;-0.80;99.90
10572;DHT22;5334;48.928;12.704;2023-03-16T03:24:29;-0.90;99.90
10572;DHT22;5334;48.928;12.704;2023-03-16T03:26:55;-1.00;99.90
10572;DHT22;5334;48.928;12.704;2023-03-16T03:29:20;-1.00;99.90
10572;DHT22;5334;48.928;12.704;2023-03-16T03:31:46;-1.00;99.90
10572;DHT22;5334;48.928;12.704;2023-03-16T03:34:12;-1.00;99.90
10572;DHT22;5334;48.928;12.704;2023-03-16T03:36:37;-1.00;99.90
10572;DHT22;5334;48.928;12.704;2023-03-16T03:39:03;-1.00;99.90
10572;DHT22;5334;48.928;12.704;2023-03-16T03:41:30;-1.00;99.90
10572;DHT22;5334;48.928;12.704;2023-03-16T03:43:57;-1.00;99.90
10572;DHT22;5334;48.928;12.704;2023-03-16T03:46:24;-1.00;99.90
10572;DHT22;5334;48.928;12.704;2023-03-16T03:48:50;-1.00;99.90
10572;DHT22;5334;48.928;12.704;2023-03-16T03:51:15;-1.10;99.90
10572;DHT22;5334;48.928;12.704;2023-03-16T03:53:41;-1.10;99.90
10572;DHT22;5334;48.928;12.704;2023-03-16T03:56:07;-1.10;99.90
10572;DHT22;5334;48.928;12.704;2023-03-16T03:58:33;-1.10;99.90
10572;DHT22;5334;48.928;12.704;2023-03-16T04:00:58;-1.10;99.90
10572;DHT22;5334;48.928;12.704;2023-03-16T04:03:24;-1.10;99.90
10572;DHT22;5334;48.928;12.704;2023-03-16T04:05:50;-1.00;99.90
10572;DHT22;5334;48.928;12.704;2023-03-16T04:08:16;-1.00;99.90
10572;DHT22;5334;48.928;12.704;2023-03-16T04:10:41;-1.10;99.90
10572;DHT22;5334;48.928;12.704;2023-03-16T04:13:07;-1.10;99.90
10572;DHT22;5334;48.928;12.704;2023-03-16T04:15:33;-1.20;99.90
10572;DHT22;5334;48.928;12.704;2023-03-16T04:18:00;-1.30;99.90
10572;DHT22;5334;48.928;12.704;2023-03-16T04:20:26;-1.40;99.90
10572;DHT22;5334;48.928;12.704;2023-03-16T04:22:53;-1.40;99.90
10572;DHT22;5334;48.928;12.704;2023-03-16T04:25:23;-1.40;99.90
10572;DHT22;5334;48.928;12.704;2023-03-16T04:27:51;-1.40;99.90
10572;DHT22;5334;48.928;12.704;2023-03-16T04:30:17;-1.40;99.90
10572;DHT22;5334;48.928;12.704;2023-03-16T04:32:42;-1.40;99.90
10572;DHT22;5334;48.928;12.704;2023-03-16T04:35:09;-1.40;99.90
10572;DHT22;5334;48.928;12.704;2023-03-16T04:37:35;-1.40;99.90
10572;DHT22;5334;48.928;12.704;2023-03-16T04:40:00;-1.40;99.90
10572;DHT22;5334;48.928;12.704;2023-03-16T04:42:36;-1.30;99.90
10572;DHT22;5334;48.928;12.704;2023-03-16T04:45:02;-1.30;99.90
10572;DHT22;5334;48.928;12.704;2023-03-16T04:47:28;-1.30;99.90
10572;DHT22;5334;48.928;12.704;2023-03-16T04:49:55;-1.30;99.90
10572;DHT22;5334;48.928;12.704;2023-03-16T04:52:20;-1.30;99.90
10572;DHT22;5334;48.928;12.704;2023-03-16T04:54:46;-1.30;99.90
10572;DHT22;5334;48.928;12.704;2023-03-16T04:57:11;-1.30;99.90
10572;DHT22;5334;48.928;12.704;2023-03-16T04:59:37;-1.30;99.90
10572;DHT22;5334;48.928;12.704;2023-03-16T05:02:03;-1.30;99.90
10572;DHT22;5334;48.928;12.704;2023-03-16T05:04:28;-1.30;99.90
10572;DHT22;5334;48.928;12.704;2023-03-16T05:06:54;-1.30;99.90
10572;DHT22;5334;48.928;12.704;2023-03-16T05:09:19;-1.30;99.90
10572;DHT22;5334;48.928;12.704;2023-03-16T05:11:45;-1.30;99.90
10572;DHT22;5334;48.928;12.704;2023-03-16T05:14:11;-1.30;99.90
10572;DHT22;5334;48.928;12.704;2023-03-16T05:16:37;-1.40;99.90
10572;DHT22;5334;48.928;12.704;2023-03-16T05:19:03;-1.40;99.90
10572;DHT22;5334;48.928;12.704;2023-03-16T05:21:29;-1.50;99.90
10572;DHT22;5334;48.928;12.704;2023-03-16T05:23:56;-1.50;99.90
10572;DHT22;5334;48.928;12.704;2023-03-16T05:26:22;-1.50;99.90
10572;DHT22;5334;48.928;12.704;2023-03-16T05:28:50;-1.60;99.90
10572;DHT22;5334;48.928;12.704;2023-03-16T05:31:16;-1.60;99.90
10572;DHT22;5334;48.928;12.704;2023-03-16T05:33:43;-1.60;99.90
10572;DHT22;5334;48.928;12.704;2023-03-16T05:36:09;-1.60;99.90
10572;DHT22;5334;48.928;12.704;2023-03-16T05:38:35;-1.50;99.90
10572;DHT22;5334;48.928;12.704;2023-03-16T05:41:01;-1.40;99.90
10572;DHT22;5334;48.928;12.704;2023-03-16T05:43:29;-1.40;99.90
10572;DHT22;5334;48.928;12.704;2023-03-16T05:45:55;-1.40;99.90
10572;DHT22;5334;48.928;12.704;2023-03-16T05:48:22;-1.40;99.90
10572;DHT22;5334;48.928;12.704;2023-03-16T05:50:50;-1.30;99.90
10572;DHT22;5334;48.928;12.704;2023-03-16T05:53:16;-1.30;99.90
10572;DHT22;5334;48.928;12.704;2023-03-16T05:55:42;-1.10;99.90
10572;DHT22;5334;48.928;12.704;2023-03-16T05:58:08;-1.00;99.90
10572;DHT22;5334;48.928;12.704;2023-03-16T06:00:34;-1.00;99.90
10572;DHT22;5334;48.928;12.704;2023-03-16T06:02:59;-0.90;99.90
10572;DHT22;5334;48.928;12.704;2023-03-16T06:05:26;-0.80;99.90
10572;DHT22;5334;48.928;12.704;2023-03-16T06:07:53;-0.70;99.90
10572;DHT22;5334;48.928;12.704;2023-03-16T06:10:19;-0.50;99.90
10572;DHT22;5334;48.928;12.704;2023-03-16T06:12:45;-0.30;99.90
10572;DHT22;5334;48.928;12.704;2023-03-16T06:15:11;-0.10;99.90
10572;DHT22;5334;48.928;12.704;2023-03-16T06:17:37;0.00;99.90
10572;DHT22;5334;48.928;12.704;2023-03-16T06:20:04;0.10;99.90
10572;DHT22;5334;48.928;12.704;2023-03-16T06:22:40;0.30;99.90
10572;DHT22;5334;48.928;12.704;2023-03-16T06:25:07;0.40;99.90
10572;DHT22;5334;48.928;12.704;2023-03-16T06:27:34;0.60;99.90
10572;DHT22;5334;48.928;12.704;2023-03-16T06:30:00;0.80;99.90
10572;DHT22;5334;48.928;12.704;2023-03-16T06:32:26;1.10;99.90
10572;DHT22;5334;48.928;12.704;2023-03-16T06:34:51;1.40;99.90
10572;DHT22;5334;48.928;12.704;2023-03-16T06:37:17;1.60;99.90
10572;DHT22;5334;48.928;12.704;2023-03-16T06:39:43;1.60;99.90
10572;DHT22;5334;48.928;12.704;2023-03-16T06:42:09;1.60;99.90
10572;DHT22;5334;48.928;12.704;2023-03-16T06:44:35;1.80;99.90
10572;DHT22;5334;48.928;12.704;2023-03-16T06:47:02;2.00;99.90
10572;DHT22;5334;48.928;12.704;2023-03-16T06:49:28;2.30;99.90
10572;DHT22;5334;48.928;12.704;2023-03-16T06:51:54;2.40;99.90
10572;DHT22;5334;48.928;12.704;2023-03-16T06:54:21;2.50;99.90
10572;DHT22;5334;48.928;12.704;2023-03-16T06:56:46;2.60;99.90
10572;DHT22;5334;48.928;12.704;2023-03-16T06:59:12;2.60;99.90
10572;DHT22;5334;48.928;12.704;2023-03-16T07:01:37;2.90;99.90
10572;DHT22;5334;48.928;12.704;2023-03-16T07:04:03;3.10;99.90
10572;DHT22;5334;48.928;12.704;2023-03-16T07:06:29;3.30;99.90
10572;DHT22;5334;48.928;12.704;2023-03-16T07:08:55;3.50;99.90
10572;DHT22;5334;48.928;12.704;2023-03-16T07:13:47;3.60;99.90
10572;DHT22;5334;48.928;12.704;2023-03-16T07:16:13;3.50;99.90
10572;DHT22;5334;48.928;12.704;2023-03-16T07:18:39;3.50;99.90
10572;DHT22;5334;48.928;12.704;2023-03-16T07:21:05;3.30;99.90
10572;DHT22;5334;48.928;12.704;2023-03-16T07:23:30;2.70;99.90
10572;DHT22;5334;48.928;12.704;2023-03-16T07:28:22;1.50;99.90
10572;DHT22;5334;48.928;12.704;2023-03-16T07:30:49;1.30;99.90
10572;DHT22;5334;48.928;12.704;2023-03-16T07:33:16;1.30;99.90
10572;DHT22;5334;48.928;12.704;2023-03-16T07:35:41;1.40;99.90
10572;DHT22;5334;48.928;12.704;2023-03-16T07:38:07;1.60;99.90
10572;DHT22;5334;48.928;12.704;2023-03-16T07:40:35;1.90;99.90
10572;DHT22;5334;48.928;12.704;2023-03-16T07:43:01;2.50;99.90
10572;DHT22;5334;48.928;12.704;2023-03-16T07:45:26;2.90;99.90
10572;DHT22;5334;48.928;12.704;2023-03-16T07:47:52;3.20;99.90
10572;DHT22;5334;48.928;12.704;2023-03-16T07:50:18;3.60;99.90
10572;DHT22;5334;48.928;12.704;2023-03-16T07:52:44;3.60;99.90
10572;DHT22;5334;48.928;12.704;2023-03-16T07:55:11;3.60;99.90
10572;DHT22;5334;48.928;12.704;2023-03-16T07:57:37;3.80;99.90
10572;DHT22;5334;48.928;12.704;2023-03-16T08:00:04;3.70;99.90
10572;DHT22;5334;48.928;12.704;2023-03-16T08:02:32;3.60;99.90
10572;DHT22;5334;48.928;12.704;2023-03-16T08:04:58;3.80;99.90
10572;DHT22;5334;48.928;12.704;2023-03-16T08:07:23;3.70;99.90
10572;DHT22;5334;48.928;12.704;2023-03-16T08:09:50;3.50;99.90
10572;DHT22;5334;48.928;12.704;2023-03-16T08:12:16;3.30;99.90
10572;DHT22;5334;48.928;12.704;2023-03-16T08:14:41;3.30;99.90
10572;DHT22;5334;48.928;12.704;2023-03-16T08:17:10;3.50;99.90
10572;DHT22;5334;48.928;12.704;2023-03-16T08:19:36;3.70;99.90
10572;DHT22;5334;48.928;12.704;2023-03-16T08:22:03;4.20;99.90
10572;DHT22;5334;48.928;12.704;2023-03-16T08:24:30;4.60;99.90
10572;DHT22;5334;48.928;12.704;2023-03-16T08:26:56;4.50;99.90
10572;DHT22;5334;48.928;12.704;2023-03-16T08:29:22;4.60;99.90
10572;DHT22;5334;48.928;12.704;2023-03-16T08:31:48;4.50;99.90
10572;DHT22;5334;48.928;12.704;2023-03-16T08:34:13;4.30;99.90
10572;DHT22;5334;48.928;12.704;2023-03-16T08:36:40;4.10;99.90
10572;DHT22;5334;48.928;12.704;2023-03-16T08:39:08;4.20;99.90
10572;DHT22;5334;48.928;12.704;2023-03-16T08:41:34;4.40;99.90
10572;DHT22;5334;48.928;12.704;2023-03-16T08:44:00;4.60;99.90
10572;DHT22;5334;48.928;12.704;2023-03-16T08:46:26;4.90;99.90
10572;DHT22;5334;48.928;12.704;2023-03-16T08:48:52;5.00;99.90
10572;DHT22;5334;48.928;12.704;2023-03-16T08:51:20;5.20;99.90
10572;DHT22;5334;48.928;12.704;2023-03-16T08:53:46;5.10;99.90
10572;DHT22;5334;48.928;12.704;2023-03-16T08:56:13;5.20;99.90
10572;DHT22;5334;48.928;12.704;2023-03-16T08:58:39;5.30;99.90
10572;DHT22;5334;48.928;12.704;2023-03-16T09:01:10;5.30;99.90
10572;DHT22;5334;48.928;12.704;2023-03-16T09:03:37;5.30;99.90
10572;DHT22;5334;48.928;12.704;2023-03-16T09:06:05;5.30;99.90
10572;DHT22;5334;48.928;12.704;2023-03-16T09:08:32;5.20;99.90
10572;DHT22;5334;48.928;12.704;2023-03-16T09:11:24;5.40;99.90
10572;DHT22;5334;48.928;12.704;2023-03-16T09:13:53;5.80;99.90
10572;DHT22;5334;48.928;12.704;2023-03-16T09:16:19;6.20;99.90
10572;DHT22;5334;48.928;12.704;2023-03-16T09:18:45;6.10;99.90
10572;DHT22;5334;48.928;12.704;2023-03-16T09:21:11;6.20;99.90
10572;DHT22;5334;48.928;12.704;2023-03-16T09:23:40;6.50;99.90
10572;DHT22;5334;48.928;12.704;2023-03-16T09:26:10;6.70;99.90
10572;DHT22;5334;48.928;12.704;2023-03-16T09:28:38;6.80;99.90
10572;DHT22;5334;48.928;12.704;2023-03-16T09:31:05;6.70;99.90
10572;DHT22;5334;48.928;12.704;2023-03-16T09:33:31;6.70;99.90
10572;DHT22;5334;48.928;12.704;2023-03-16T09:35:58;6.70;99.90
10572;DHT22;5334;48.928;12.704;2023-03-16T09:38:25;6.50;99.90
10572;DHT22;5334;48.928;12.704;2023-03-16T09:41:09;6.50;99.90
10572;DHT22;5334;48.928;12.704;2023-03-16T09:48:56;6.90;99.90
10572;DHT22;5334;48.928;12.704;2023-03-16T09:51:39;6.90;99.90
10572;DHT22;5334;48.928;12.704;2023-03-16T09:56:53;7.10;99.90
10572;DHT22;5334;48.928;12.704;2023-03-16T09:59:20;7.10;99.90
10572;DHT22;5334;48.928;12.704;2023-03-16T10:05:11;7.30;99.90
10572;DHT22;5334;48.928;12.704;2023-03-16T10:07:53;7.10;99.90
10572;DHT22;5334;48.928;12.704;2023-03-16T10:10:41;7.10;99.90
10572;DHT22;5334;48.928;12.704;2023-03-16T10:15:52;7.30;99.90
10572;DHT22;5334;48.928;12.704;2023-03-16T10:18:23;7.40;99.90
10572;DHT22;5334;48.928;12.704;2023-03-16T10:20:51;7.70;99.90
10572;DHT22;5334;48.928;12.704;2023-03-16T10:23:21;7.80;99.90
10572;DHT22;5334;48.928;12.704;2023-03-16T10:25:53;8.10;99.90
10572;DHT22;5334;48.928;12.704;2023-03-16T10:28:22;8.30;99.90
10572;DHT22;5334;48.928;12.704;2023-03-16T10:30:50;8.20;99.90
10572;DHT22;5334;48.928;12.704;2023-03-16T10:35:57;8.50;99.90
10572;DHT22;5334;48.928;12.704;2023-03-16T10:43:57;9.10;99.90
10572;DHT22;5334;48.928;12.704;2023-03-16T10:46:26;9.10;99.90
10572;DHT22;5334;48.928;12.704;2023-03-16T10:48:56;8.90;99.90
10572;DHT22;5334;48.928;12.704;2023-03-16T10:51:30;8.70;99.90
10572;DHT22;5334;48.928;12.704;2023-03-16T10:54:08;8.80;99.90
10572;DHT22;5334;48.928;12.704;2023-03-16T10:56:38;8.70;99.90
10572;DHT22;5334;48.928;12.704;2023-03-16T11:01:53;8.20;99.90
10572;DHT22;5334;48.928;12.704;2023-03-16T11:04:19;8.50;99.90
10572;DHT22;5334;48.928;12.704;2023-03-16T11:06:54;8.80;99.90
10572;DHT22;5334;48.928;12.704;2023-03-16T11:09:25;9.10;99.90
10572;DHT22;5334;48.928;12.704;2023-03-16T11:11:52;9.30;99.90
10572;DHT22;5334;48.928;12.704;2023-03-16T11:14:21;9.30;98.50
10572;DHT22;5334;48.928;12.704;2023-03-16T11:17:14;9.30;99.20
10572;DHT22;5334;48.928;12.704;2023-03-16T11:22:17;9.50;98.00
10572;DHT22;5334;48.928;12.704;2023-03-16T11:30:35;9.90;99.00
10572;DHT22;5334;48.928;12.704;2023-03-16T11:33:01;10.10;98.70
10572;DHT22;5334;48.928;12.704;2023-03-16T11:35:47;10.60;99.90
10572;DHT22;5334;48.928;12.704;2023-03-16T11:38:24;10.90;97.50
10572;DHT22;5334;48.928;12.704;2023-03-16T11:41:05;10.50;96.60
10572;DHT22;5334;48.928;12.704;2023-03-16T11:46:33;10.60;97.50
10572;DHT22;5334;48.928;12.704;2023-03-16T12:07:53;10.90;94.70
10572;DHT22;5334;48.928;12.704;2023-03-16T12:15:52;10.60;94.40
10572;DHT22;5334;48.928;12.704;2023-03-16T12:21:00;10.80;95.10
10572;DHT22;5334;48.928;12.704;2023-03-16T12:23:33;11.10;94.10
10572;DHT22;5334;48.928;12.704;2023-03-16T12:26:01;11.00;91.90
10572;DHT22;5334;48.928;12.704;2023-03-16T12:28:28;11.00;92.00
10572;DHT22;5334;48.928;12.704;2023-03-16T12:32:00;11.00;91.40
10572;DHT22;5334;48.928;12.704;2023-03-16T12:40:01;10.80;90.70
10572;DHT22;5334;48.928;12.704;2023-03-16T12:46:47;11.30;92.30
10572;DHT22;5334;48.928;12.704;2023-03-16T12:48:53;11.50;91.00
10572;DHT22;5334;48.928;12.704;2023-03-16T12:51:19;11.50;91.50
10572;DHT22;5334;48.928;12.704;2023-03-16T12:56:27;11.50;91.70
10572;DHT22;5334;48.928;12.704;2023-03-16T12:58:58;11.40;90.20
10572;DHT22;5334;48.928;12.704;2023-03-16T13:04:17;11.80;90.00
10572;DHT22;5334;48.928;12.704;2023-03-16T13:06:47;12.10;90.00
10572;DHT22;5334;48.928;12.704;2023-03-16T13:09:25;12.10;88.10
10572;DHT22;5334;48.928;12.704;2023-03-16T13:11:52;11.80;88.80
10572;DHT22;5334;48.928;12.704;2023-03-16T13:14:40;11.40;87.70
10572;DHT22;5334;48.928;12.704;2023-03-16T13:27:39;12.90;90.50
10572;DHT22;5334;48.928;12.704;2023-03-16T13:30:29;12.90;87.00
10572;DHT22;5334;48.928;12.704;2023-03-16T13:33:14;13.20;87.40
10572;DHT22;5334;48.928;12.704;2023-03-16T13:35:42;13.00;84.10
10572;DHT22;5334;48.928;12.704;2023-03-16T13:38:17;12.90;84.40
10572;DHT22;5334;48.928;12.704;2023-03-16T13:40:46;12.80;81.40
10572;DHT22;5334;48.928;12.704;2023-03-16T13:43:17;12.90;80.80
10572;DHT22;5334;48.928;12.704;2023-03-16T13:45:43;13.00;80.10
10572;DHT22;5334;48.928;12.704;2023-03-16T13:48:12;12.90;79.30
10572;DHT22;5334;48.928;12.704;2023-03-16T13:50:39;13.00;80.40
10572;DHT22;5334;48.928;12.704;2023-03-16T13:53:20;13.30;80.90
10572;DHT22;5334;48.928;12.704;2023-03-16T13:55:47;13.20;75.30
10572;DHT22;5334;48.928;12.704;2023-03-16T13:58:27;13.00;75.50
10572;DHT22;5334;48.928;12.704;2023-03-16T14:00:58;12.90;75.60
10572;DHT22;5334;48.928;12.704;2023-03-16T14:03:33;13.10;79.30
10572;DHT22;5334;48.928;12.704;2023-03-16T14:06:00;13.40;77.00
10572;DHT22;5334;48.928;12.704;2023-03-16T14:08:28;13.20;76.50
10572;DHT22;5334;48.928;12.704;2023-03-16T14:10:55;13.30;77.70
10572;DHT22;5334;48.928;12.704;2023-03-16T14:13:31;13.10;74.70
10572;DHT22;5334;48.928;12.704;2023-03-16T14:16:01;13.60;73.60
10572;DHT22;5334;48.928;12.704;2023-03-16T14:18:35;13.60;74.70
10572;DHT22;5334;48.928;12.704;2023-03-16T14:21:21;13.50;76.60
10572;DHT22;5334;48.928;12.704;2023-03-16T14:23:58;13.60;74.90
10572;DHT22;5334;48.928;12.704;2023-03-16T14:26:24;13.80;78.50
10572;DHT22;5334;48.928;12.704;2023-03-16T14:29:09;13.90;76.30
10572;DHT22;5334;48.928;12.704;2023-03-16T14:31:39;13.70;73.10
10572;DHT22;5334;48.928;12.704;2023-03-16T14:34:30;13.20;71.80
10572;DHT22;5334;48.928;12.704;2023-03-16T14:37:06;13.00;74.30
10572;DHT22;5334;48.928;12.704;2023-03-16T14:39:33;13.10;74.00
10572;DHT22;5334;48.928;12.704;2023-03-16T14:42:01;13.20;73.80
10572;DHT22;5334;48.928;12.704;2023-03-16T14:44:30;13.20;74.20
10572;DHT22;5334;48.928;12.704;2023-03-16T14:47:00;13.30;72.40
10572;DHT22;5334;48.928;12.704;2023-03-16T14:49:45;13.20;72.90
10572;DHT22;5334;48.928;12.704;2023-03-16T14:52:24;13.00;72.20
10572;DHT22;5334;48.928;12.704;2023-03-16T14:54:52;13.00;70.90
10572;DHT22;5334;48.928;12.704;2023-03-16T14:57:20;12.90;68.60
10572;DHT22;5334;48.928;12.704;2023-03-16T14:59:46;13.20;69.80
10572;DHT22;5334;48.928;12.704;2023-03-16T15:02:21;13.80;70.10
10572;DHT22;5334;48.928;12.704;2023-03-16T15:04:47;14.00;68.40
10572;DHT22;5334;48.928;12.704;2023-03-16T15:07:27;14.20;69.90
10572;DHT22;5334;48.928;12.704;2023-03-16T15:10:06;13.60;66.00
10572;DHT22;5334;48.928;12.704;2023-03-16T15:12:34;13.40;65.40
10572;DHT22;5334;48.928;12.704;2023-03-16T15:15:23;13.40;68.00
10572;DHT22;5334;48.928;12.704;2023-03-16T15:17:52;13.40;68.30
10572;DHT22;5334;48.928;12.704;2023-03-16T15:20:20;13.60;68.20
10572;DHT22;5334;48.928;12.704;2023-03-16T15:22:49;13.70;67.40
10572;DHT22;5334;48.928;12.704;2023-03-16T15:27:41;13.70;68.20
10572;DHT22;5334;48.928;12.704;2023-03-16T15:30:24;13.50;67.20
10572;DHT22;5334;48.928;12.704;2023-03-16T15:32:50;13.60;66.80
10572;DHT22;5334;48.928;12.704;2023-03-16T15:35:16;13.50;66.50
10572;DHT22;5334;48.928;12.704;2023-03-16T15:37:42;13.50;65.80
10572;DHT22;5334;48.928;12.704;2023-03-16T15:40:16;13.50;67.70
10572;DHT22;5334;48.928;12.704;2023-03-16T15:42:43;13.60;66.80
10572;DHT22;5334;48.928;12.704;2023-03-16T15:45:14;13.50;66.50
10572;DHT22;5334;48.928;12.704;2023-03-16T15:47:42;13.70;67.90
10572;DHT22;5334;48.928;12.704;2023-03-16T15:50:12;13.40;65.60
10572;DHT22;5334;48.928;12.704;2023-03-16T15:52:42;13.20;66.30
10572;DHT22;5334;48.928;12.704;2023-03-16T15:55:38;13.00;67.80
10572;DHT22;5334;48.928;12.704;2023-03-16T15:58:12;12.60;66.50
10572;DHT22;5334;48.928;12.704;2023-03-16T16:00:40;12.30;67.10
10572;DHT22;5334;48.928;12.704;2023-03-16T16:03:09;11.90;67.40
10572;DHT22;5334;48.928;12.704;2023-03-16T16:05:35;11.30;67.50
10572;DHT22;5334;48.928;12.704;2023-03-16T16:08:01;11.10;68.50
10572;DHT22;5334;48.928;12.704;2023-03-16T16:10:27;10.80;68.80
10572;DHT22;5334;48.928;12.704;2023-03-16T16:12:54;10.40;69.80
10572;DHT22;5334;48.928;12.704;2023-03-16T16:15:29;9.90;69.50
10572;DHT22;5334;48.928;12.704;2023-03-16T16:17:58;9.70;72.20
10572;DHT22;5334;48.928;12.704;2023-03-16T16:22:52;9.30;72.50
10572;DHT22;5334;48.928;12.704;2023-03-16T16:25:21;9.10;72.60
10572;DHT22;5334;48.928;12.704;2023-03-16T16:27:49;8.80;72.00
10572;DHT22;5334;48.928;12.704;2023-03-16T16:32:47;8.60;74.30
10572;DHT22;5334;48.928;12.704;2023-03-16T16:35:15;8.60;74.90
10572;DHT22;5334;48.928;12.704;2023-03-16T16:37:41;8.50;74.80
10572;DHT22;5334;48.928;12.704;2023-03-16T16:40:22;8.30;75.10
10572;DHT22;5334;48.928;12.704;2023-03-16T16:42:51;8.20;75.00
10572;DHT22;5334;48.928;12.704;2023-03-16T16:47:44;8.00;75.60
10572;DHT22;5334;48.928;12.704;2023-03-16T16:50:25;7.90;76.60
10572;DHT22;5334;48.928;12.704;2023-03-16T16:52:52;7.90;74.80
10572;DHT22;5334;48.928;12.704;2023-03-16T16:55:20;7.90;74.00
10572;DHT22;5334;48.928;12.704;2023-03-16T16:57:47;7.90;73.60
10572;DHT22;5334;48.928;12.704;2023-03-16T17:00:22;7.80;74.60
10572;DHT22;5334;48.928;12.704;2023-03-16T17:02:51;7.70;73.80
10572;DHT22;5334;48.928;12.704;2023-03-16T17:05:26;7.70;74.40
10572;DHT22;5334;48.928;12.704;2023-03-16T17:07:52;7.60;74.30
10572;DHT22;5334;48.928;12.704;2023-03-16T17:10:26;7.60;74.40
10572;DHT22;5334;48.928;12.704;2023-03-16T17:12:54;7.50;73.80
10572;DHT22;5334;48.928;12.704;2023-03-16T17:15:28;7.50;74.10
10572;DHT22;5334;48.928;12.704;2023-03-16T17:18:24;7.30;74.20
10572;DHT22;5334;48.928;12.704;2023-03-16T17:20:50;7.30;74.50
10572;DHT22;5334;48.928;12.704;2023-03-16T17:23:33;7.20;74.70
10572;DHT22;5334;48.928;12.704;2023-03-16T17:26:13;7.10;75.40
10572;DHT22;5334;48.928;12.704;2023-03-16T17:28:52;7.10;75.10
10572;DHT22;5334;48.928;12.704;2023-03-16T17:31:25;7.00;75.80
10572;DHT22;5334;48.928;12.704;2023-03-16T17:33:52;7.00;76.60
10572;DHT22;5334;48.928;12.704;2023-03-16T17:36:19;6.80;76.50